createdAt,value
2023-05-14T00:00:40.217Z,34.16
2023-05-14T00:01:40.249Z,34.14
2023-05-14T00:02:40.340Z,34.14
2023-05-14T00:03:40.381Z,34.13
2023-05-14T00:04:40.395Z,34.12
2023-05-14T00:05:40.313Z,34.14
2023-05-14T00:06:40.339Z,34.14
2023-05-14T00:07:40.363Z,34.11
2023-05-14T00:08:40.383Z,34.11
2023-05-14T00:09:40.432Z,34.11
2023-05-14T00:10:40.435Z,34.10
2023-05-14T00:11:40.448Z,34.10
2023-05-14T00:12:40.467Z,34.12
2023-05-14T00:13:40.503Z,34.12
2023-05-14T00:14:40.516Z,34.08
2023-05-14T00:15:40.538Z,34.11
2023-05-14T00:16:40.556Z,34.09
2023-05-14T00:17:40.571Z,34.11
2023-05-14T00:18:40.750Z,34.11
2023-05-14T00:19:41.042Z,34.10
2023-05-14T00:20:40.625Z,34.08
2023-05-14T00:21:40.657Z,34.10
2023-05-14T00:22:40.682Z,34.08
2023-05-14T00:23:40.703Z,34.06
2023-05-14T00:24:40.722Z,34.08
2023-05-14T00:25:40.729Z,34.04
2023-05-14T00:26:40.771Z,34.05
2023-05-14T00:27:40.796Z,34.05
2023-05-14T00:28:40.803Z,34.05
2023-05-14T00:29:40.833Z,34.04
2023-05-14T00:30:40.846Z,34.04
2023-05-14T00:31:40.916Z,34.04
2023-05-14T00:32:40.900Z,34.00
2023-05-14T00:33:40.935Z,34.04
2023-05-14T00:34:40.955Z,34.02
2023-05-14T00:35:41.022Z,34.01
2023-05-14T00:36:40.985Z,34.02
2023-05-14T00:37:41.017Z,34.00
2023-05-14T00:38:41.034Z,34.01
2023-05-14T00:39:41.073Z,34.01
2023-05-14T00:40:41.094Z,34.00
2023-05-14T00:41:41.135Z,34.00
2023-05-14T00:42:41.163Z,33.99
2023-05-14T00:43:41.167Z,34.00
2023-05-14T00:44:41.207Z,33.96
2023-05-14T00:45:41.209Z,33.97
2023-05-14T00:46:41.260Z,33.96
2023-05-14T00:47:41.294Z,33.94
2023-05-14T00:48:41.277Z,33.96
2023-05-14T00:49:41.315Z,33.94
2023-05-14T00:50:41.316Z,33.92
2023-05-14T00:51:41.351Z,33.93
2023-05-14T00:52:41.388Z,33.91
2023-05-14T00:53:41.423Z,33.93
2023-05-14T00:54:41.473Z,33.94
2023-05-14T00:55:41.461Z,33.91
2023-05-14T00:56:41.471Z,33.90
2023-05-14T00:57:41.490Z,33.94
2023-05-14T00:58:41.527Z,33.90
2023-05-14T00:59:41.546Z,33.90
2023-05-14T01:00:41.588Z,33.90
2023-05-14T01:01:41.592Z,33.87
2023-05-14T01:02:41.733Z,33.87
2023-05-14T01:03:41.829Z,33.87
2023-05-14T01:04:41.673Z,33.88
2023-05-14T01:05:41.700Z,33.87
2023-05-14T01:06:41.727Z,33.84
2023-05-14T01:07:41.749Z,33.83
2023-05-14T01:08:41.775Z,33.82
2023-05-14T01:09:41.808Z,33.82
2023-05-14T01:10:41.830Z,33.82
2023-05-14T01:11:41.842Z,33.79
2023-05-14T01:12:41.869Z,33.79
2023-05-14T01:13:41.907Z,33.79
2023-05-14T01:14:41.947Z,33.79
2023-05-14T01:15:41.963Z,33.78
2023-05-14T01:16:42.043Z,33.77
2023-05-14T01:17:42.154Z,33.77
2023-05-14T01:18:42.079Z,33.75
2023-05-14T01:19:42.070Z,33.73
2023-05-14T01:20:42.102Z,33.73
2023-05-14T01:21:42.103Z,33.73
2023-05-14T01:22:42.153Z,33.72
2023-05-14T01:23:42.179Z,33.73
2023-05-14T01:24:42.203Z,33.71
2023-05-14T01:25:42.227Z,33.71
2023-05-14T01:26:42.226Z,33.67
2023-05-14T01:27:42.263Z,33.65
2023-05-14T01:28:42.286Z,33.67
2023-05-14T01:29:42.316Z,33.66
2023-05-14T01:30:42.334Z,33.64
2023-05-14T01:31:42.383Z,33.65
2023-05-14T01:32:42.441Z,33.61
2023-05-14T01:33:42.435Z,33.63
2023-05-14T01:34:42.448Z,33.64
2023-05-14T01:35:42.458Z,33.62
2023-05-14T01:36:42.488Z,33.59
2023-05-14T01:37:42.514Z,33.58
2023-05-14T01:38:42.529Z,33.58
2023-05-14T01:39:42.588Z,33.59
2023-05-14T01:40:42.576Z,33.58
2023-05-14T01:41:42.599Z,33.55
2023-05-14T01:42:42.645Z,33.56
2023-05-14T01:43:42.648Z,33.56
2023-05-14T01:44:42.683Z,33.55
2023-05-14T01:45:42.763Z,33.56
2023-05-14T01:46:42.798Z,33.54
2023-05-14T01:47:42.834Z,33.54
2023-05-14T01:48:42.796Z,33.56
2023-05-14T01:49:42.827Z,33.53
2023-05-14T01:50:42.860Z,33.53
2023-05-14T01:51:42.870Z,33.54
2023-05-14T01:52:42.890Z,33.53
2023-05-14T01:53:42.908Z,33.48
2023-05-14T01:54:42.953Z,33.50
2023-05-14T01:55:42.962Z,33.49
2023-05-14T01:56:42.984Z,33.52
2023-05-14T01:57:43.025Z,33.47
2023-05-14T01:58:43.065Z,33.48
2023-05-14T01:59:43.077Z,33.49
2023-05-14T02:00:43.109Z,33.47
2023-05-14T02:01:43.144Z,33.47
2023-05-14T02:02:43.185Z,33.47
2023-05-14T02:03:43.223Z,33.45
2023-05-14T02:04:43.211Z,33.44
2023-05-14T02:05:43.237Z,33.42
2023-05-14T02:06:43.277Z,33.44
2023-05-14T02:07:43.297Z,33.44
2023-05-14T02:08:43.339Z,33.42
2023-05-14T02:09:43.369Z,33.43
2023-05-14T02:10:43.378Z,33.40
2023-05-14T02:11:43.408Z,33.41
2023-05-14T02:12:43.457Z,33.40
2023-05-14T02:13:43.478Z,33.41
2023-05-14T02:14:43.533Z,33.40
2023-05-14T02:15:43.581Z,33.40
2023-05-14T02:16:43.604Z,33.38
2023-05-14T02:17:43.656Z,33.38
2023-05-14T02:18:43.700Z,33.38
2023-05-14T02:19:43.690Z,33.40
2023-05-14T02:20:43.725Z,33.38
2023-05-14T02:21:43.785Z,33.37
2023-05-14T02:22:43.772Z,33.34
2023-05-14T02:23:43.820Z,33.37
2023-05-14T02:24:43.871Z,33.35
2023-05-14T02:25:43.904Z,33.36
2023-05-14T02:26:43.916Z,33.33
2023-05-14T02:27:43.972Z,33.33
2023-05-14T02:28:43.975Z,33.33
2023-05-14T02:29:44.003Z,33.34
2023-05-14T02:30:44.037Z,33.33
2023-05-14T02:31:44.127Z,33.33
2023-05-14T02:32:44.243Z,33.32
2023-05-14T02:33:44.232Z,33.30
2023-05-14T02:34:44.173Z,33.31
2023-05-14T02:35:44.226Z,33.31
2023-05-14T02:36:44.255Z,33.30
2023-05-14T02:37:44.295Z,33.28
2023-05-14T02:38:44.308Z,33.27
2023-05-14T02:39:44.352Z,33.28
2023-05-14T02:40:44.397Z,33.28
2023-05-14T02:41:44.411Z,33.25
2023-05-14T02:42:44.447Z,33.26
2023-05-14T02:43:44.534Z,33.26
2023-05-14T02:44:44.557Z,33.24
2023-05-14T02:45:44.558Z,33.24
2023-05-14T02:46:44.599Z,33.23
2023-05-14T02:47:44.668Z,33.25
2023-05-14T02:48:44.669Z,33.24
2023-05-14T02:49:44.701Z,33.23
2023-05-14T02:50:44.741Z,33.20
2023-05-14T02:51:44.767Z,33.24
2023-05-14T02:52:44.820Z,33.21
2023-05-14T02:53:44.864Z,33.18
2023-05-14T02:54:44.917Z,33.20
2023-05-14T02:55:44.930Z,33.21
2023-05-14T02:56:44.976Z,33.21
2023-05-14T02:57:44.993Z,33.18
2023-05-14T02:58:45.034Z,33.19
2023-05-14T02:59:45.059Z,33.16
2023-05-14T03:00:45.189Z,33.16
2023-05-14T03:01:45.165Z,33.17
2023-05-14T03:02:45.230Z,33.16
2023-05-14T03:03:45.204Z,33.17
2023-05-14T03:04:45.273Z,33.14
2023-05-14T03:05:45.280Z,33.14
2023-05-14T03:06:45.321Z,33.13
2023-05-14T03:07:45.349Z,33.13
2023-05-14T03:08:45.386Z,33.12
2023-05-14T03:09:45.416Z,33.11
2023-05-14T03:10:45.470Z,33.09
2023-05-14T03:11:45.492Z,33.10
2023-05-14T03:12:45.548Z,33.12
2023-05-14T03:13:45.576Z,33.13
2023-05-14T03:14:45.611Z,33.11
2023-05-14T03:15:45.712Z,33.10
2023-05-14T03:16:45.713Z,33.09
2023-05-14T03:17:45.751Z,33.10
2023-05-14T03:18:45.804Z,33.09
2023-05-14T03:19:45.823Z,33.10
2023-05-14T03:20:45.864Z,33.10
2023-05-14T03:21:45.899Z,33.10
2023-05-14T03:22:45.929Z,33.07
2023-05-14T03:23:45.963Z,33.05
2023-05-14T03:24:46.015Z,33.07
2023-05-14T03:25:46.102Z,33.05
2023-05-14T03:26:46.098Z,33.07
2023-05-14T03:27:46.134Z,33.07
2023-05-14T03:28:46.157Z,33.04
2023-05-14T03:29:46.208Z,33.07
2023-05-14T03:30:46.311Z,33.06
2023-05-14T03:31:46.282Z,33.03
2023-05-14T03:32:46.372Z,33.04
2023-05-14T03:33:46.374Z,33.05
2023-05-14T03:34:46.414Z,33.03
2023-05-14T03:35:46.463Z,33.00
2023-05-14T03:36:46.493Z,33.03
2023-05-14T03:37:46.526Z,33.02
2023-05-14T03:38:46.572Z,33.01
2023-05-14T03:39:46.626Z,33.02
2023-05-14T03:40:46.674Z,32.99
2023-05-14T03:41:46.700Z,33.00
2023-05-14T03:42:46.750Z,33.01
2023-05-14T03:43:46.789Z,33.02
2023-05-14T03:44:46.816Z,33.01
2023-05-14T03:45:46.869Z,33.01
2023-05-14T03:46:46.907Z,32.99
2023-05-14T03:47:47.010Z,33.00
2023-05-14T03:48:47.029Z,33.00
2023-05-14T03:49:47.039Z,33.02
2023-05-14T03:50:47.097Z,33.00
2023-05-14T03:51:47.126Z,33.00
2023-05-14T03:52:47.172Z,32.98
2023-05-14T03:53:47.220Z,32.96
2023-05-14T03:54:47.252Z,33.00
2023-05-14T03:55:47.295Z,32.96
2023-05-14T03:56:47.331Z,32.98
2023-05-14T03:57:47.384Z,32.98
2023-05-14T03:58:47.426Z,32.96
2023-05-14T03:59:47.452Z,32.96
2023-05-14T04:00:47.507Z,32.98
2023-05-14T04:01:47.539Z,32.95
2023-05-14T04:02:47.609Z,32.96
2023-05-14T04:03:47.825Z,32.94
2023-05-14T04:04:47.773Z,32.94
2023-05-14T04:05:47.718Z,32.92
2023-05-14T04:06:47.743Z,32.93
2023-05-14T04:07:47.803Z,32.92
2023-05-14T04:08:47.839Z,32.92
2023-05-14T04:09:47.877Z,32.92
2023-05-14T04:10:47.925Z,32.89
2023-05-14T04:11:47.940Z,32.91
2023-05-14T04:12:48.002Z,32.87
2023-05-14T04:13:48.050Z,32.89
2023-05-14T04:14:48.093Z,32.86
2023-05-14T04:15:48.122Z,32.85
2023-05-14T04:16:48.188Z,32.87
2023-05-14T04:17:48.253Z,32.86
2023-05-14T04:18:48.311Z,32.84
2023-05-14T04:19:48.279Z,32.83
2023-05-14T04:20:48.320Z,32.80
2023-05-14T04:21:48.345Z,32.81
2023-05-14T04:22:48.364Z,32.80
2023-05-14T04:23:48.414Z,32.78
2023-05-14T04:24:48.462Z,32.79
2023-05-14T04:25:48.502Z,32.76
2023-05-14T04:26:48.530Z,32.78
2023-05-14T04:27:48.572Z,32.75
2023-05-14T04:28:48.605Z,32.75
2023-05-14T04:29:48.635Z,32.77
2023-05-14T04:30:48.674Z,32.75
2023-05-14T04:31:48.751Z,32.72
2023-05-14T04:32:48.827Z,32.71
2023-05-14T04:33:48.812Z,32.71
2023-05-14T04:34:48.853Z,32.73
2023-05-14T04:35:48.912Z,32.71
2023-05-14T04:36:48.946Z,32.69
2023-05-14T04:37:48.979Z,32.69
2023-05-14T04:38:49.004Z,32.68
2023-05-14T04:39:49.081Z,32.70
2023-05-14T04:40:49.098Z,32.67
2023-05-14T04:41:49.140Z,32.67
2023-05-14T04:42:49.198Z,32.63
2023-05-14T04:43:49.255Z,32.66
2023-05-14T04:44:49.289Z,32.66
2023-05-14T04:45:49.388Z,32.66
2023-05-14T04:46:49.379Z,32.65
2023-05-14T04:47:49.455Z,32.65
2023-05-14T04:48:49.451Z,32.63
2023-05-14T04:49:49.505Z,32.62
2023-05-14T04:50:49.558Z,32.63
2023-05-14T04:51:49.561Z,32.62
2023-05-14T04:52:49.611Z,32.62
2023-05-14T04:53:49.653Z,32.61
2023-05-14T04:54:49.775Z,32.59
2023-05-14T04:55:49.758Z,32.57
2023-05-14T04:56:49.758Z,32.58
2023-05-14T04:57:49.806Z,32.57
2023-05-14T04:58:49.846Z,32.55
2023-05-14T04:59:49.881Z,32.56
2023-05-14T05:00:49.939Z,32.55
2023-05-14T05:01:49.994Z,32.56
2023-05-14T05:02:50.036Z,32.54
2023-05-14T05:03:50.128Z,32.54
2023-05-14T05:04:50.098Z,32.54
2023-05-14T05:05:50.156Z,32.53
2023-05-14T05:06:50.180Z,32.51
2023-05-14T05:07:50.216Z,32.52
2023-05-14T05:08:50.249Z,32.54
2023-05-14T05:09:50.296Z,32.49
2023-05-14T05:10:50.366Z,32.50
2023-05-14T05:11:50.390Z,32.49
2023-05-14T05:12:50.444Z,32.46
2023-05-14T05:13:50.495Z,32.46
2023-05-14T05:14:50.522Z,32.46
2023-05-14T05:15:50.611Z,32.45
2023-05-14T05:16:50.606Z,32.45
2023-05-14T05:17:50.662Z,32.45
2023-05-14T05:18:50.742Z,32.45
2023-05-14T05:19:50.739Z,32.45
2023-05-14T05:20:50.810Z,32.44
2023-05-14T05:21:50.829Z,32.43
2023-05-14T05:22:50.858Z,32.46
2023-05-14T05:23:50.909Z,32.43
2023-05-14T05:24:50.932Z,32.44
2023-05-14T05:25:51.007Z,32.43
2023-05-14T05:26:51.034Z,32.42
2023-05-14T05:27:51.083Z,32.41
2023-05-14T05:28:51.127Z,32.42
2023-05-14T05:29:51.170Z,32.40
2023-05-14T05:30:51.241Z,32.41
2023-05-14T05:31:51.298Z,32.41
2023-05-14T05:32:51.320Z,32.38
2023-05-14T05:33:51.363Z,32.42
2023-05-14T05:34:51.414Z,32.37
2023-05-14T05:35:51.462Z,32.38
2023-05-14T05:36:51.515Z,32.40
2023-05-14T05:37:51.568Z,32.36
2023-05-14T05:38:51.598Z,32.39
2023-05-14T05:39:51.664Z,32.37
2023-05-14T05:40:51.716Z,32.36
2023-05-14T05:41:51.758Z,32.35
2023-05-14T05:42:51.794Z,32.33
2023-05-14T05:43:51.859Z,32.36
2023-05-14T05:44:51.891Z,32.36
2023-05-14T05:45:51.957Z,32.35
2023-05-14T05:46:52.028Z,32.35
2023-05-14T05:47:52.077Z,32.34
2023-05-14T05:48:52.106Z,32.33
2023-05-14T05:49:52.154Z,32.34
2023-05-14T05:50:52.193Z,32.34
2023-05-14T05:51:52.249Z,32.30
2023-05-14T05:52:52.309Z,32.30
2023-05-14T05:53:52.381Z,32.30
2023-05-14T05:54:52.410Z,32.33
2023-05-14T05:55:52.474Z,32.31
2023-05-14T05:56:52.510Z,32.30
2023-05-14T05:57:52.544Z,32.29
2023-05-14T05:58:52.603Z,32.29
2023-05-14T05:59:52.648Z,32.32
2023-05-14T06:00:52.701Z,32.31
2023-05-14T06:01:52.787Z,32.32
2023-05-14T06:02:52.826Z,32.29
2023-05-14T06:03:52.841Z,32.28
2023-05-14T06:04:52.971Z,32.29
2023-05-14T06:05:53.026Z,32.28
2023-05-14T06:06:52.973Z,32.27
2023-05-14T06:07:53.025Z,32.27
2023-05-14T06:08:53.064Z,32.24
2023-05-14T06:09:53.108Z,32.26
2023-05-14T06:10:53.172Z,32.24
2023-05-14T06:11:53.221Z,32.24
2023-05-14T06:12:53.254Z,32.25
2023-05-14T06:13:53.316Z,32.25
2023-05-14T06:14:53.359Z,32.23
2023-05-14T06:15:53.399Z,32.24
2023-05-14T06:16:53.612Z,32.20
2023-05-14T06:17:53.544Z,32.21
2023-05-14T06:18:53.574Z,32.16
2023-05-14T06:19:53.599Z,32.18
2023-05-14T06:20:53.653Z,32.14
2023-05-14T06:21:53.693Z,32.14
2023-05-14T06:22:53.748Z,32.16
2023-05-14T06:23:53.786Z,32.13
2023-05-14T06:24:53.838Z,32.13
2023-05-14T06:25:53.894Z,32.10
2023-05-14T06:26:53.920Z,32.13
2023-05-14T06:27:53.967Z,32.12
2023-05-14T06:28:54.025Z,32.12
2023-05-14T06:29:54.080Z,32.11
2023-05-14T06:30:54.111Z,32.10
2023-05-14T06:31:54.213Z,32.09
2023-05-14T06:32:54.272Z,32.10
2023-05-14T06:33:54.244Z,32.10
2023-05-14T06:34:54.289Z,32.10
2023-05-14T06:35:54.331Z,32.08
2023-05-14T06:36:54.414Z,32.08
2023-05-14T06:37:54.454Z,32.08
2023-05-14T06:38:54.503Z,32.08
2023-05-14T06:39:57.060Z,32.07
2023-05-14T06:40:54.509Z,32.08
2023-05-14T06:41:54.490Z,32.06
2023-05-14T06:42:54.491Z,32.07
2023-05-14T06:43:54.503Z,32.05
2023-05-14T06:44:54.490Z,32.03
2023-05-14T06:45:54.485Z,32.04
2023-05-14T06:46:54.454Z,32.02
2023-05-14T06:47:54.534Z,32.03
2023-05-14T06:48:55.671Z,32.03
2023-05-14T06:49:54.431Z,32.01
2023-05-14T06:50:54.438Z,32.02
2023-05-14T06:51:54.433Z,32.01
2023-05-14T06:52:54.433Z,32.00
2023-05-14T06:53:54.418Z,31.98
2023-05-14T06:54:54.430Z,32.00
2023-05-14T06:55:54.458Z,31.98
2023-05-14T06:56:54.516Z,31.98
2023-05-14T06:57:54.550Z,31.98
2023-05-14T06:58:54.596Z,31.97
2023-05-14T06:59:54.628Z,31.98
2023-05-14T07:00:54.662Z,31.98
2023-05-14T07:01:54.707Z,31.97
2023-05-14T07:02:54.762Z,31.96
2023-05-14T07:03:54.817Z,31.94
2023-05-14T07:04:54.802Z,31.97
2023-05-14T07:05:54.843Z,31.96
2023-05-14T07:06:54.879Z,31.96
2023-05-14T07:07:54.916Z,31.96
2023-05-14T07:08:54.983Z,31.94
2023-05-14T07:09:55.019Z,31.95
2023-05-14T07:10:55.054Z,31.94
2023-05-14T07:11:55.068Z,31.94
2023-05-14T07:12:55.098Z,31.94
2023-05-14T07:13:55.161Z,31.93
2023-05-14T07:14:55.164Z,31.94
2023-05-14T07:15:55.228Z,31.95
2023-05-14T07:16:55.298Z,31.92
2023-05-14T07:17:55.319Z,31.91
2023-05-14T07:18:55.367Z,31.91
2023-05-14T07:19:55.385Z,31.92
2023-05-14T07:20:55.416Z,31.92
2023-05-14T07:21:55.439Z,31.89
2023-05-14T07:22:55.473Z,31.89
2023-05-14T07:23:55.513Z,31.91
2023-05-14T07:24:55.523Z,31.89
2023-05-14T07:25:55.571Z,31.89
2023-05-14T07:26:55.602Z,31.88
2023-05-14T07:27:55.614Z,31.89
2023-05-14T07:28:55.641Z,31.87
2023-05-14T07:29:55.672Z,31.86
2023-05-14T07:30:55.734Z,31.84
2023-05-14T07:31:55.738Z,31.82
2023-05-14T07:32:55.801Z,31.85
2023-05-14T07:33:55.797Z,31.83
2023-05-14T07:34:55.803Z,31.85
2023-05-14T07:35:55.846Z,31.85
2023-05-14T07:36:55.850Z,31.85
2023-05-14T07:37:55.901Z,31.81
2023-05-14T07:38:55.906Z,31.81
2023-05-14T07:39:55.933Z,31.82
2023-05-14T07:40:55.950Z,31.80
2023-05-14T07:41:55.975Z,31.80
2023-05-14T07:42:55.996Z,31.80
2023-05-14T07:43:56.014Z,31.80
2023-05-14T07:44:56.053Z,31.79
2023-05-14T07:45:56.046Z,31.77
2023-05-14T07:46:56.073Z,31.80
2023-05-14T07:47:56.195Z,31.80
2023-05-14T07:48:56.091Z,31.79
2023-05-14T07:49:56.113Z,31.77
2023-05-14T07:50:56.127Z,31.77
2023-05-14T07:51:56.160Z,31.78
2023-05-14T07:52:56.163Z,31.74
2023-05-14T07:53:56.196Z,31.71
2023-05-14T07:54:56.244Z,31.71
2023-05-14T07:55:56.217Z,31.74
2023-05-14T07:56:56.235Z,31.75
2023-05-14T07:57:56.249Z,31.75
2023-05-14T07:58:56.257Z,31.76
2023-05-14T07:59:56.277Z,31.78
2023-05-14T08:00:56.300Z,31.75
2023-05-14T08:01:56.384Z,31.76
2023-05-14T08:02:56.419Z,31.76
2023-05-14T08:03:56.437Z,31.74
2023-05-14T08:04:56.348Z,31.75
2023-05-14T08:05:56.380Z,31.74
2023-05-14T08:06:56.401Z,31.75
2023-05-14T08:07:56.413Z,31.75
2023-05-14T08:08:56.425Z,31.74
2023-05-14T08:09:56.428Z,31.72
2023-05-14T08:10:56.462Z,31.69
2023-05-14T08:11:56.443Z,31.66
2023-05-14T08:12:56.462Z,31.64
2023-05-14T08:13:56.432Z,31.63
2023-05-14T08:14:56.446Z,31.61
2023-05-14T08:15:56.445Z,31.62
2023-05-14T08:16:56.533Z,31.60
2023-05-14T08:17:56.469Z,31.55
2023-05-14T08:18:56.454Z,31.53
2023-05-14T08:19:56.431Z,31.49
2023-05-14T08:20:56.453Z,31.47
2023-05-14T08:21:56.448Z,31.42
2023-05-14T08:22:56.454Z,31.39
2023-05-14T08:23:56.476Z,31.34
2023-05-14T08:24:56.513Z,31.35
2023-05-14T08:25:56.518Z,31.32
2023-05-14T08:26:56.545Z,31.29
2023-05-14T08:27:56.581Z,31.30
2023-05-14T08:28:56.610Z,31.31
2023-05-14T08:29:56.652Z,31.30
2023-05-14T08:30:56.732Z,31.30
2023-05-14T08:31:56.731Z,31.29
2023-05-14T08:32:56.823Z,31.27
2023-05-14T08:33:56.837Z,31.28
2023-05-14T08:34:56.887Z,31.28
2023-05-14T08:35:56.962Z,31.26
2023-05-14T08:36:57.025Z,31.29
2023-05-14T08:37:57.088Z,31.28
2023-05-14T08:38:57.152Z,31.25
2023-05-14T08:39:57.185Z,31.25
2023-05-14T08:40:57.319Z,31.26
2023-05-14T08:41:57.304Z,31.24
2023-05-14T08:42:57.391Z,31.24
2023-05-14T08:43:57.422Z,31.24
2023-05-14T08:44:57.466Z,31.24
2023-05-14T08:45:57.508Z,31.24
2023-05-14T08:46:57.547Z,31.26
2023-05-14T08:47:57.652Z,31.24
2023-05-14T08:48:57.747Z,31.24
2023-05-14T08:49:57.746Z,31.24
2023-05-14T08:50:57.765Z,31.24
2023-05-14T08:51:57.813Z,31.22
2023-05-14T08:52:57.846Z,31.24
2023-05-14T08:53:57.887Z,31.21
2023-05-14T08:54:57.946Z,31.18
2023-05-14T08:55:57.982Z,31.13
2023-05-14T08:56:58.026Z,31.11
2023-05-14T08:57:58.050Z,31.08
2023-05-14T08:58:58.087Z,31.05
2023-05-14T08:59:58.130Z,31.02
2023-05-14T09:00:58.167Z,31.01
2023-05-14T09:01:58.210Z,30.99
2023-05-14T09:02:58.247Z,30.99
2023-05-14T09:03:58.301Z,30.92
2023-05-14T09:04:58.269Z,30.88
2023-05-14T09:06:00.141Z,30.87
2023-05-14T09:06:58.337Z,30.82
2023-05-14T09:07:58.357Z,30.79
2023-05-14T09:08:58.376Z,30.79
2023-05-14T09:09:58.393Z,30.75
2023-05-14T09:10:58.424Z,30.70
2023-05-14T09:11:58.429Z,30.70
2023-05-14T09:12:58.458Z,30.68
2023-05-14T09:13:58.477Z,30.66
2023-05-14T09:14:58.485Z,30.64
2023-05-14T09:15:58.535Z,30.63
2023-05-14T09:16:58.545Z,30.61
2023-05-14T09:17:58.614Z,30.59
2023-05-14T09:18:58.585Z,30.61
2023-05-14T09:19:58.610Z,30.63
2023-05-14T09:20:58.655Z,30.69
2023-05-14T09:21:58.655Z,30.66
2023-05-14T09:22:58.651Z,30.63
2023-05-14T09:23:58.696Z,30.62
2023-05-14T09:24:58.698Z,30.59
2023-05-14T09:25:58.707Z,30.59
2023-05-14T09:26:58.717Z,30.57
2023-05-14T09:27:59.056Z,30.55
2023-05-14T09:28:58.738Z,30.55
2023-05-14T09:29:58.745Z,30.54
2023-05-14T09:30:58.744Z,30.53
2023-05-14T09:31:58.817Z,30.52
2023-05-14T09:32:58.796Z,30.52
2023-05-14T09:33:58.901Z,30.54
2023-05-14T09:34:58.783Z,30.61
2023-05-14T09:35:58.807Z,30.69
2023-05-14T09:36:58.814Z,30.78
2023-05-14T09:37:58.829Z,30.80
2023-05-14T09:38:58.844Z,30.83
2023-05-14T09:39:58.844Z,30.87
2023-05-14T09:40:58.881Z,30.89
2023-05-14T09:41:58.889Z,30.91
2023-05-14T09:42:58.916Z,30.95
2023-05-14T09:43:58.912Z,30.96
2023-05-14T09:44:58.922Z,30.94
2023-05-14T09:45:58.934Z,30.94
2023-05-14T09:46:59.056Z,30.94
2023-05-14T09:47:59.144Z,30.95
2023-05-14T09:48:59.013Z,30.93
2023-05-14T09:49:59.078Z,30.94
2023-05-14T09:50:59.081Z,30.92
2023-05-14T09:51:59.122Z,30.96
2023-05-14T09:52:59.100Z,30.95
2023-05-14T09:53:59.092Z,30.96
2023-05-14T09:54:59.134Z,30.94
2023-05-14T09:55:59.125Z,30.94
2023-05-14T09:56:59.146Z,30.97
2023-05-14T09:57:59.157Z,30.95
2023-05-14T09:58:59.204Z,30.98
2023-05-14T09:59:59.280Z,30.95
2023-05-14T10:00:59.325Z,30.97
2023-05-14T10:01:59.304Z,30.94
2023-05-14T10:02:59.335Z,30.94
2023-05-14T10:03:59.358Z,30.94
2023-05-14T10:04:59.358Z,30.94
2023-05-14T10:05:59.361Z,30.93
2023-05-14T10:06:59.375Z,30.92
2023-05-14T10:07:59.405Z,30.94
2023-05-14T10:08:59.401Z,30.90
2023-05-14T10:09:59.697Z,30.85
2023-05-14T10:10:59.402Z,30.79
2023-05-14T10:11:59.420Z,30.75
2023-05-14T10:12:59.425Z,30.74
2023-05-14T10:13:59.433Z,30.67
2023-05-14T10:14:59.432Z,30.66
2023-05-14T10:15:59.411Z,30.65
2023-05-14T10:16:59.446Z,30.64
2023-05-14T10:17:59.490Z,30.65
2023-05-14T10:18:59.492Z,30.65
2023-05-14T10:19:59.420Z,30.68
2023-05-14T10:20:59.423Z,30.69
2023-05-14T10:21:59.411Z,30.71
2023-05-14T10:22:59.417Z,30.73
2023-05-14T10:23:59.393Z,30.72
2023-05-14T10:24:59.396Z,30.70
2023-05-14T10:25:59.394Z,30.71
2023-05-14T10:26:59.413Z,30.72
2023-05-14T10:27:59.420Z,30.76
2023-05-14T10:28:59.424Z,30.76
2023-05-14T10:29:59.428Z,30.77
2023-05-14T10:30:59.477Z,30.76
2023-05-14T10:31:59.405Z,30.78
2023-05-14T10:32:59.481Z,30.78
2023-05-14T10:33:59.954Z,30.79
2023-05-14T10:34:59.424Z,30.79
2023-05-14T10:35:59.425Z,30.79
2023-05-14T10:36:59.419Z,30.80
2023-05-14T10:37:59.419Z,30.79
2023-05-14T10:38:59.451Z,30.76
2023-05-14T10:39:59.465Z,30.77
2023-05-14T10:40:59.443Z,30.79
2023-05-14T10:41:59.451Z,30.78
2023-05-14T10:42:59.450Z,30.79
2023-05-14T10:43:59.483Z,30.78
2023-05-14T10:44:59.445Z,30.79
2023-05-14T10:45:59.452Z,30.79
2023-05-14T10:46:59.500Z,30.77
2023-05-14T10:47:59.485Z,30.79
2023-05-14T10:48:59.441Z,30.77
2023-05-14T10:49:59.449Z,30.78
2023-05-14T10:50:59.503Z,30.79
2023-05-14T10:51:59.480Z,30.80
2023-05-14T10:52:59.443Z,30.78
2023-05-14T10:53:59.468Z,30.77
2023-05-14T10:55:02.678Z,30.78
2023-05-14T10:55:59.432Z,30.78
2023-05-14T10:56:59.429Z,30.77
2023-05-14T10:57:59.438Z,30.76
2023-05-14T10:58:59.425Z,30.77
2023-05-14T10:59:59.411Z,30.76
2023-05-14T11:00:59.411Z,30.76
2023-05-14T11:01:59.429Z,30.76
2023-05-14T11:02:59.433Z,30.74
2023-05-14T11:03:59.437Z,30.74
2023-05-14T11:04:59.392Z,30.74
2023-05-14T11:05:59.361Z,30.77
2023-05-14T11:06:59.372Z,30.76
2023-05-14T11:07:59.368Z,30.76
2023-05-14T11:08:59.355Z,30.75
2023-05-14T11:09:59.336Z,30.75
2023-05-14T11:10:59.351Z,30.75
2023-05-14T11:11:59.341Z,30.75
2023-05-14T11:12:59.334Z,30.76
2023-05-14T11:13:59.330Z,30.74
2023-05-14T11:14:59.335Z,30.73
2023-05-14T11:16:02.241Z,30.74
2023-05-14T11:17:00.362Z,30.74
2023-05-14T11:17:59.338Z,30.72
2023-05-14T11:18:59.309Z,30.71
2023-05-14T11:19:59.281Z,30.73
2023-05-14T11:20:59.394Z,30.73
2023-05-14T11:21:59.252Z,30.70
2023-05-14T11:22:59.250Z,30.68
2023-05-14T11:23:59.252Z,30.69
2023-05-14T11:24:59.250Z,30.70
2023-05-14T11:25:59.255Z,30.71
2023-05-14T11:26:59.244Z,30.68
2023-05-14T11:27:59.217Z,30.70
2023-05-14T11:28:59.208Z,30.70
2023-05-14T11:29:59.206Z,30.68
2023-05-14T11:30:59.192Z,30.71
2023-05-14T11:31:59.264Z,30.70
2023-05-14T11:33:01.778Z,30.73
2023-05-14T11:33:59.170Z,30.74
2023-05-14T11:34:59.167Z,30.73
2023-05-14T11:35:59.172Z,30.73
2023-05-14T11:36:59.168Z,30.77
2023-05-14T11:37:59.163Z,30.75
2023-05-14T11:38:59.153Z,30.77
2023-05-14T11:39:59.148Z,30.78
2023-05-14T11:40:59.150Z,30.79
2023-05-14T11:41:59.146Z,30.79
2023-05-14T11:42:59.158Z,30.78
2023-05-14T11:43:59.114Z,30.81
2023-05-14T11:44:59.097Z,30.82
2023-05-14T11:45:59.126Z,30.80
2023-05-14T11:46:59.116Z,30.80
2023-05-14T11:47:59.107Z,30.84
2023-05-14T11:48:59.080Z,30.82
2023-05-14T11:49:59.064Z,30.82
2023-05-14T11:50:59.064Z,30.81
2023-05-14T11:51:59.047Z,30.83
2023-05-14T11:52:59.052Z,30.83
2023-05-14T11:53:59.052Z,30.82
2023-05-14T11:54:59.018Z,30.82
2023-05-14T11:55:59.025Z,30.80
2023-05-14T11:56:59.007Z,30.86
2023-05-14T11:57:59.003Z,30.81
2023-05-14T11:58:59.003Z,30.84
2023-05-14T11:59:59.019Z,30.81
2023-05-14T12:00:59.005Z,30.82
2023-05-14T12:01:58.966Z,30.81
2023-05-14T12:02:59.013Z,30.82
2023-05-14T12:03:59.081Z,30.84
2023-05-14T12:04:58.948Z,30.82
2023-05-14T12:05:58.942Z,30.82
2023-05-14T12:06:58.936Z,30.84
2023-05-14T12:07:58.944Z,30.80
2023-05-14T12:08:58.919Z,30.83
2023-05-14T12:09:58.928Z,30.81
2023-05-14T12:10:58.970Z,30.79
2023-05-14T12:11:58.914Z,30.78
2023-05-14T12:12:58.896Z,30.77
2023-05-14T12:13:58.922Z,30.78
2023-05-14T12:14:58.878Z,30.79
2023-05-14T12:15:58.893Z,30.78
2023-05-14T12:16:58.880Z,30.81
2023-05-14T12:17:58.904Z,30.80
2023-05-14T12:18:58.900Z,30.81
2023-05-14T12:19:58.859Z,30.78
2023-05-14T12:20:58.852Z,30.82
2023-05-14T12:21:58.841Z,30.75
2023-05-14T12:22:58.823Z,30.77
2023-05-14T12:23:58.816Z,30.78
2023-05-14T12:24:58.831Z,30.78
2023-05-14T12:25:58.802Z,30.82
2023-05-14T12:26:58.794Z,30.82
2023-05-14T12:27:58.803Z,30.81
2023-05-14T12:28:58.787Z,30.83
2023-05-14T12:30:01.958Z,30.83
2023-05-14T12:30:59.844Z,30.83
2023-05-14T12:31:58.806Z,30.83
2023-05-14T12:32:58.872Z,30.85
2023-05-14T12:33:58.759Z,30.86
2023-05-14T12:34:58.761Z,30.85
2023-05-14T12:36:00.521Z,30.85
2023-05-14T12:36:59.727Z,30.85
2023-05-14T12:37:58.723Z,30.88
2023-05-14T12:38:58.705Z,30.87
2023-05-14T12:39:58.718Z,30.86
2023-05-14T12:40:58.707Z,30.86
2023-05-14T12:41:58.720Z,30.87
2023-05-14T12:42:58.708Z,30.89
2023-05-14T12:43:58.687Z,30.87
2023-05-14T12:44:58.683Z,30.89
2023-05-14T12:45:58.658Z,30.90
2023-05-14T12:46:58.712Z,30.88
2023-05-14T12:47:58.720Z,30.90
2023-05-14T12:48:58.642Z,30.91
2023-05-14T12:49:58.651Z,30.90
2023-05-14T12:50:58.644Z,30.91
2023-05-14T12:52:17.031Z,30.91
2023-05-14T12:52:59.630Z,30.94